Home PIREPS Pireps

Flight WIN1004

  • Submitted By: Carl Hermans
  • Departure Airport: Bruxelles National (EBBR)
  • Arrival Airport: airport Innsbruck (LOWI)
  • Aircraft: YOUR CHOICE (YC)
  • Flight Time: 01.40
  • Date Submitted: 25/06/2016
  • Status: Accepted
Flight Details
Gross Revenue:
(25 load / € 0.00 per unit
€ 0.00
Fuel Cost:
(2641 fuel used @ 5.1 / unit)
€ 13,469.10

Additional Log Information:

View Log

Aircraft Used in flight is x737-800_v501 jetairfly
16:03Flaps 3 Selected at 120ft and 0kts
16:03 Engine 1 Started
16:03 Engine 2 Started
16:03 Engine 3 Started
16:03 Engine 4 Started
16:03 Strobe Lights ON at 120 AGL
16:03 Navigation Lights ON at 120 AGL
16:03 Beacon Lights ON at 120 AGL
16:03 Brakes are On
16:14 Brakes are Released
16:16 Taxi Lights ON at 120 AGL
16:19 Brakes are On
16:19 Brakes are Released
16:19 Brakes are On
16:19 Brakes are Released
16:19 Brakes are On
16:19 Brakes are Released
16:19 Brakes are On
16:19 Taxi Lights OFF at 100 AGL
16:19 Brakes are Released
16:20 You Took off @ 164 Knots and Flaps at Position 3
Departure Weather
EBBR 251350Z VRB01KT 9999 BKN035 17/11 Q1017 NOSIGrn
16:21 Landing Gear Up @ 214 Knots and 1080 Feet
16:21Flaps 2 Selected at 3870ft and 201kts
16:21Flaps 1 Selected at 4050ft and 203kts
16:21Flaps Retracted at 4140ft and 207kts
16:22 You exceeded maximum bank angle
16:23 Above FL100 you need to switch of the landing lights
17:28Flaps 1 Selected at 9520ft and 189kts
17:28Flaps 3 Selected at 9520ft and 190kts
17:29Flaps 4 Selected at 9410ft and 152kts
17:31Flaps 5 Selected at 8840ft and 151kts
17:31Flaps 6 Selected at 8690ft and 135kts
17:33 Landing Gear Down @ 129 Knots and 7290 Feet
17:33Flaps 7 Selected at 6820ft and 132kts
17:38 You Landed @ 132 Knots and with -550 Vertical Speed
Arrival Weather
LOWI 251520Z 26008G19KT 180V340 9999 FEW030 FEW070CB BKN100 19/15 Q1013 RERA NOSIGrn
17:38 Your Landing was very hard
17:39 Brakes are On
17:39 Brakes are Released
17:39 Brakes are On
17:39 Brakes are Released
17:39 Brakes are On
17:39 Brakes are Released
17:39Flaps 5 Selected at 1910ft and 0kts
17:39Flaps 1 Selected at 1910ft and 0kts
17:39Flaps Retracted at 1910ft and 0kts
17:42 Brakes are On
17:42 Brakes are Released
17:42 Brakes are On
17:42 Brakes are Released
17:42 Brakes are On
17:42 Brakes are Released
17:42 Brakes are On
17:43 Navigation Lights OFF at 1890 AGL
17:43 Beacon Lights OFF at 1890 AGL
17:43 Engine 1 Stoped
17:43 Brussels Bel-Track1.0.0.11

Route Map

Corporate About Us Our Team Vacancies Information Fleet Route Network Rules and Regulations Operations Flight Schedules Event Center Tours Partners IVAO Vatsim Acars dev FSCB

fb Users Online Belgium Roger Wijns, United Kingdom David Chenery,
4 Pilot(s) and 227 Guest(s) Online
CMS by phpVMS - Design by Crazycreatives.com - Copyright © 2018 - Brussels Airlines Virtual